Time;durP1;ratioP1;P1;durP2;ratioP2;P2;SDS_P1;SDS_P2;PMS_P1;PMS_P2;Temp;Humidity;BMP_temperature;BMP_pressure;BME280_temperature;BME280_humidity;BME280_pressure;Samples;Min_cycle;Max_cycle;Signal;HPM_P1;HPM_P2
2022/01/15 00:00:11;;;;;;;29.00;22.13;;;;;;;-0.81;100.00;99496.47;5057393;28;20418;-70
2022/01/15 00:02:37;;;;;;;32.33;21.93;;;;;;;-0.79;100.00;99499.78;5057597;28;20438;-70
2022/01/15 00:05:04;;;;;;;29.37;20.97;;;;;;;-0.80;100.00;99504.16;5057596;28;20438;-69
2022/01/15 00:07:30;;;;;;;32.23;21.23;;;;;;;-0.78;100.00;99493.63;5057221;28;20933;-70
2022/01/15 00:09:56;;;;;;;24.97;19.03;;;;;;;-0.79;100.00;99489.34;5057472;28;20445;-70
2022/01/15 00:12:23;;;;;;;31.30;22.43;;;;;;;-0.86;100.00;99478.53;5057454;28;20430;-70
2022/01/15 00:14:51;;;;;;;25.77;19.57;;;;;;;-0.91;99.99;99482.41;5057012;28;20779;-71
2022/01/15 00:17:20;;;;;;;27.37;19.30;;;;;;;-0.94;100.00;99485.28;5056974;28;20848;-70
2022/01/15 00:19:49;;;;;;;27.47;19.93;;;;;;;-0.93;100.00;99492.16;5057190;28;20438;-70
2022/01/15 00:22:18;;;;;;;28.17;20.10;;;;;;;-0.93;100.00;99486.94;5057223;28;20507;-70
2022/01/15 00:24:46;;;;;;;33.67;20.63;;;;;;;-0.90;100.00;99481.50;5057189;28;20433;-70
2022/01/15 00:27:13;;;;;;;29.37;18.90;;;;;;;-0.85;100.00;99479.38;5056720;28;20500;-71
2022/01/15 00:29:40;;;;;;;25.57;18.73;;;;;;;-0.87;100.00;99476.88;5057134;28;20747;-70
2022/01/15 00:32:08;;;;;;;26.10;18.07;;;;;;;-0.97;100.00;99481.09;5057091;28;20434;-72
2022/01/15 00:34:35;;;;;;;24.23;17.37;;;;;;;-0.88;100.00;99479.59;5056947;28;20466;-72
2022/01/15 00:37:01;;;;;;;24.67;18.20;;;;;;;-0.90;100.00;99478.88;5056914;28;20454;-72
2022/01/15 00:39:28;;;;;;;25.80;18.07;;;;;;;-0.92;100.00;99471.16;5056942;28;20431;-72
2022/01/15 00:41:54;;;;;;;25.70;18.67;;;;;;;-0.96;100.00;99472.31;5056762;28;20446;-72
2022/01/15 00:44:21;;;;;;;25.23;17.77;;;;;;;-0.99;100.00;99487.38;5056869;28;20440;-72
2022/01/15 00:46:47;;;;;;;23.10;17.00;;;;;;;-1.00;100.00;99465.66;5056747;28;20768;-72
2022/01/15 00:49:13;;;;;;;24.90;16.50;;;;;;;-1.02;100.00;99467.56;5056694;28;20434;-72
2022/01/15 00:51:40;;;;;;;23.80;17.23;;;;;;;-1.06;100.00;99468.72;5056364;28;20874;-72
2022/01/15 00:54:07;;;;;;;28.73;17.77;;;;;;;-0.99;100.00;99469.94;5056634;28;20469;-70
2022/01/15 00:56:34;;;;;;;24.67;17.60;;;;;;;-1.02;100.00;99467.56;5056555;28;20454;-70
2022/01/15 00:59:00;;;;;;;25.00;16.97;;;;;;;-1.03;100.00;99467.66;5056501;28;20541;-70
2022/01/15 01:01:27;;;;;;;23.93;17.77;;;;;;;-1.12;100.00;99471.75;5056455;28;20421;-72
2022/01/15 01:03:53;;;;;;;26.30;17.63;;;;;;;-1.12;100.00;99461.31;5056533;28;20430;-72
2022/01/15 01:06:19;;;;;;;24.93;17.63;;;;;;;-1.11;100.00;99468.22;5056418;28;20434;-72
2022/01/15 01:08:46;;;;;;;24.03;17.03;;;;;;;-1.17;100.00;99463.44;5056420;28;20730;-72
2022/01/15 01:11:14;;;;;;;26.33;17.10;;;;;;;-1.13;100.00;99464.88;5056428;28;20434;-72
2022/01/15 01:20:03;;;;;;;23.50;18.33;;;;;;;-1.18;99.79;99467.00;5056302;28;20438;-72
2022/01/15 01:24:41;;;;;;;24.63;17.87;;;;;;;-1.11;100.00;99456.94;5056082;28;20398;-72
2022/01/15 01:27:12;;;;;;;21.93;16.97;;;;;;;-1.13;100.00;99459.66;5055950;28;20536;-72
2022/01/15 01:29:51;;;;;;;25.13;17.43;;;;;;;-1.14;100.00;99455.41;5056198;28;20477;-72
2022/01/15 01:32:35;;;;;;;26.77;17.80;;;;;;;-1.15;100.00;99452.91;5056160;28;20438;-72
2022/01/15 01:35:09;;;;;;;25.90;17.77;;;;;;;-1.13;100.00;99458.84;5056184;28;20556;-67
2022/01/15 01:37:40;;;;;;;26.63;18.17;;;;;;;-1.20;100.00;99458.47;5056074;28;20460;-67
2022/01/15 01:40:17;;;;;;;23.60;16.77;;;;;;;-1.18;100.00;99455.72;5056171;28;20418;-67
2022/01/15 01:42:54;;;;;;;23.70;18.33;;;;;;;-1.14;100.00;99451.94;5055839;28;20992;-67
2022/01/15 01:45:20;;;;;;;26.33;18.63;;;;;;;-1.16;100.00;99454.69;5056190;28;20422;-67
2022/01/15 01:47:46;;;;;;;27.93;19.20;;;;;;;-1.24;100.00;99458.78;5056023;28;20458;-67
2022/01/15 01:50:23;;;;;;;30.50;19.60;;;;;;;-1.19;100.00;99459.28;5056075;28;20423;-67
2022/01/15 01:52:53;;;;;;;26.17;18.30;;;;;;;-1.19;100.00;99459.28;5056065;28;20418;-67
2022/01/15 01:55:22;;;;;;;25.03;17.90;;;;;;;-1.29;100.00;99459.13;5056021;28;20462;-67
2022/01/15 01:57:49;;;;;;;27.17;18.87;;;;;;;-1.27;100.00;99456.38;5055663;28;20451;-67
2022/01/15 02:00:18;;;;;;;24.13;17.67;;;;;;;-1.22;100.00;99457.72;5055691;28;20418;-67
2022/01/15 02:02:45;;;;;;;21.93;16.13;;;;;;;-1.19;100.00;99454.06;5055710;28;20472;-72
2022/01/15 02:05:12;;;;;;;24.87;17.30;;;;;;;-1.21;100.00;99461.19;5055968;28;20426;-72
2022/01/15 02:07:40;;;;;;;27.80;17.57;;;;;;;-1.29;100.00;99443.47;5055881;28;20474;-72
2022/01/15 02:10:09;;;;;;;23.80;16.97;;;;;;;-1.29;100.00;99442.63;5055668;28;20422;-72
2022/01/15 02:12:36;;;;;;;23.40;18.07;;;;;;;-1.32;100.00;99445.47;5055581;28;20521;-72
2022/01/15 02:15:12;;;;;;;25.53;18.10;;;;;;;-1.31;100.00;99450.56;5055804;28;20470;-72
2022/01/15 02:17:38;;;;;;;27.40;19.40;;;;;;;-1.36;100.00;99444.84;5055794;28;20457;-71
2022/01/15 02:20:58;;;;;;;25.83;17.83;;;;;;;-1.30;100.00;99441.78;5055807;28;20430;-72
2022/01/15 02:26:08;;;;;;;24.03;17.23;;;;;;;-1.38;100.00;99433.72;5059012;28;20862;-72
2022/01/15 02:28:43;;;;;;;23.40;17.13;;;;;;;-1.48;100.00;99429.28;5059430;28;20426;-72
2022/01/15 02:31:12;;;;;;;25.77;16.83;;;;;;;-1.46;100.00;99425.59;5059470;28;20441;-72
2022/01/15 02:33:39;;;;;;;23.97;17.40;;;;;;;-1.48;100.00;99432.69;5059373;28;20433;-72
2022/01/15 02:36:12;;;;;;;26.83;17.57;;;;;;;-1.46;100.00;99423.00;5058960;28;20937;-72
2022/01/15 02:38:40;;;;;;;23.80;16.97;;;;;;;-1.49;100.00;99428.44;5058995;28;20464;-72
2022/01/15 02:41:07;;;;;;;26.00;17.77;;;;;;;-1.48;100.00;99417.03;5058892;28;20873;-72
2022/01/15 02:43:34;;;;;;;28.97;17.80;;;;;;;-1.43;100.00;99414.97;5058840;28;20442;-72
2022/01/15 02:46:19;;;;;;;26.83;18.40;;;;;;;-1.46;100.00;99415.16;5058840;28;20846;-72
2022/01/15 02:49:06;;;;;;;24.30;17.20;;;;;;;-1.48;100.00;99422.25;5059107;28;20422;-72
2022/01/15 02:51:35;;;;;;;23.20;16.27;;;;;;;-1.48;100.00;99408.41;5059057;28;20709;-71
2022/01/15 02:54:03;;;;;;;26.73;17.80;;;;;;;-1.50;100.00;99416.34;5058786;28;20450;-72
2022/01/15 02:56:35;;;;;;;24.63;18.77;;;;;;;-1.55;100.00;99413.22;5058497;28;20789;-72
2022/01/15 02:59:03;;;;;;;24.83;17.70;;;;;;;-1.54;100.00;99411.47;5058651;28;20431;-70
2022/01/15 03:01:31;;;;;;;28.73;17.90;;;;;;;-1.49;100.00;99406.75;5058848;28;20422;-70
2022/01/15 03:03:57;;;;;;;23.30;16.57;;;;;;;-1.52;100.00;99404.34;5058460;28;20738;-70
2022/01/15 03:06:24;;;;;;;22.40;16.27;;;;;;;-1.56;100.00;99395.94;5058316;28;20866;-70
2022/01/15 03:08:52;;;;;;;22.60;17.60;;;;;;;-1.54;100.00;99391.41;5058700;28;20435;-70
2022/01/15 03:11:19;;;;;;;22.47;16.20;;;;;;;-1.58;100.00;99389.16;5058597;28;20434;-69
2022/01/15 03:13:47;;;;;;;23.57;16.20;;;;;;;-1.58;100.00;99391.75;5058309;28;20834;-69
2022/01/15 03:16:18;;;;;;;23.80;16.53;;;;;;;-1.61;99.68;99381.56;5058535;28;20474;-69
2022/01/15 03:18:45;;;;;;;26.57;16.77;;;;;;;-1.59;100.00;99374.44;5058543;28;20418;-68
2022/01/15 03:21:12;;;;;;;21.77;15.50;;;;;;;-1.57;100.00;99372.56;5058151;28;20737;-68
2022/01/15 03:23:39;;;;;;;23.43;17.10;;;;;;;-1.65;100.00;99375.72;5058414;28;20441;-68
2022/01/15 03:26:07;;;;;;;23.57;17.10;;;;;;;-1.60;100.00;99376.22;5058385;28;20418;-68
2022/01/15 03:28:35;;;;;;;23.43;16.83;;;;;;;-1.59;100.00;99383.09;5058348;28;20869;-70
2022/01/15 03:31:01;;;;;;;23.83;17.10;;;;;;;-1.59;100.00;99362.25;5057970;28;20426;-70
2022/01/15 03:33:28;;;;;;;24.57;16.50;;;;;;;-1.53;100.00;99364.41;5057064;28;20430;-70
2022/01/15 03:35:54;;;;;;;24.70;16.50;;;;;;;-1.61;100.00;99369.34;5058097;28;20469;-69
2022/01/15 03:38:21;;;;;;;23.67;16.37;;;;;;;-1.65;100.00;99370.53;5058112;28;20827;-70
2022/01/15 03:40:47;;;;;;;23.77;15.53;;;;;;;-1.57;100.00;99360.34;5057791;28;20431;-70
2022/01/15 03:43:14;;;;;;;24.43;16.73;;;;;;;-1.59;99.82;99359.63;5057777;28;20446;-70
2022/01/15 03:45:40;;;;;;;22.47;16.23;;;;;;;-1.62;100.00;99359.84;5057947;28;20426;-69
2022/01/15 03:48:07;;;;;;;24.20;16.60;;;;;;;-1.65;100.00;99359.25;5057880;28;20754;-70
2022/01/15 03:50:33;;;;;;;22.53;17.53;;;;;;;-1.64;100.00;99350.47;5057954;28;20477;-72
2022/01/15 03:52:59;;;;;;;23.07;17.17;;;;;;;-1.52;100.00;99354.81;5057803;28;20445;-72
2022/01/15 03:55:26;;;;;;;25.00;16.70;;;;;;;-1.57;100.00;99357.72;5057732;28;20474;-72
2022/01/15 03:57:53;;;;;;;20.77;16.63;;;;;;;-1.61;100.00;99348.50;5057673;28;20462;-71
2022/01/15 04:00:24;;;;;;;24.43;16.40;;;;;;;-1.67;100.00;99342.91;5057647;28;20795;-72
2022/01/15 04:02:52;;;;;;;21.80;15.97;;;;;;;-1.70;100.00;99349.16;5057357;28;20837;-72
2022/01/15 04:05:19;;;;;;;24.10;16.80;;;;;;;-1.70;100.00;99356.16;5057595;28;20453;-72
2022/01/15 04:07:45;;;;;;;24.50;17.63;;;;;;;-1.73;100.00;99353.75;5057482;28;20545;-72
2022/01/15 04:10:13;;;;;;;24.47;16.13;;;;;;;-1.77;100.00;99358.34;5057474;28;20430;-72
2022/01/15 04:12:40;;;;;;;25.60;16.47;;;;;;;-1.73;100.00;99351.13;5057339;28;20430;-72
2022/01/15 04:15:08;;;;;;;24.73;17.47;;;;;;;-1.76;99.89;99346.16;5057207;28;20481;-72
2022/01/15 04:17:34;;;;;;;23.90;17.67;;;;;;;-1.80;100.00;99345.53;5056265;28;20450;-72
2022/01/15 04:20:01;;;;;;;23.30;16.23;;;;;;;-1.82;100.00;99349.19;5057325;28;20442;-72
2022/01/15 04:22:27;;;;;;;22.70;16.43;;;;;;;-1.80;100.00;99352.53;5057159;28;20419;-70
2022/01/15 04:24:53;;;;;;;25.87;16.27;;;;;;;-1.84;100.00;99349.34;5057207;28;20436;-70
2022/01/15 04:27:22;;;;;;;23.23;16.00;;;;;;;-1.82;100.00;99350.03;5057081;28;20702;-70
2022/01/15 04:29:49;;;;;;;23.53;16.53;;;;;;;-1.88;100.00;99355.72;5056817;28;20517;-70
2022/01/15 04:32:15;;;;;;;22.97;16.43;;;;;;;-1.88;99.75;99354.88;5056754;28;20865;-69
2022/01/15 04:34:41;;;;;;;21.93;15.87;;;;;;;-1.98;100.00;99352.06;5057018;28;20425;-70
2022/01/15 04:37:12;;;;;;;24.57;16.13;;;;;;;-1.90;100.00;99346.34;5056867;28;20461;-70
2022/01/15 04:39:39;;;;;;;20.47;16.40;;;;;;;-1.88;100.00;99349.66;5056814;28;20862;-70
2022/01/15 04:42:06;;;;;;;21.33;16.27;;;;;;;-1.86;100.00;99352.97;5056484;28;20976;-68
2022/01/15 04:44:32;;;;;;;22.37;15.83;;;;;;;-1.82;100.00;99344.81;5056533;28;20430;-67
2022/01/15 04:46:59;;;;;;;21.43;16.43;;;;;;;-1.97;100.00;99339.88;5056646;28;20461;-67
2022/01/15 04:49:25;;;;;;;22.53;16.00;;;;;;;-1.91;100.00;99337.66;5056817;28;20437;-67
2022/01/15 04:51:52;;;;;;;23.47;16.53;;;;;;;-1.88;100.00;99336.63;5056483;28;20732;-67
2022/01/15 04:54:18;;;;;;;22.40;16.37;;;;;;;-1.84;100.00;99338.91;5057097;28;20429;-68
2022/01/15 04:56:44;;;;;;;21.27;15.57;;;;;;;-1.86;100.00;99346.00;5056553;28;20475;-70
2022/01/15 04:59:11;;;;;;;26.77;16.67;;;;;;;-1.91;100.00;99349.84;5056643;28;20434;-69
2022/01/15 05:01:37;;;;;;;23.00;16.47;;;;;;;-1.92;100.00;99346.44;5056596;28;20434;-70
2022/01/15 05:04:05;;;;;;;23.67;16.97;;;;;;;-1.95;100.00;99353.63;5056194;28;20509;-71
2022/01/15 05:06:31;;;;;;;24.37;17.60;;;;;;;-1.90;100.00;99352.34;5056351;28;20455;-70
2022/01/15 05:09:04;;;;;;;23.20;15.63;;;;;;;-1.94;100.00;99348.31;5056051;28;20710;-70
2022/01/15 05:11:43;;;;;;;23.40;16.37;;;;;;;-1.91;100.00;99348.09;5056057;28;20541;-70
2022/01/15 05:14:09;;;;;;;21.47;14.73;;;;;;;-2.02;99.95;99348.03;5056327;28;20422;-70
2022/01/15 05:16:36;;;;;;;20.60;15.70;;;;;;;-1.98;99.99;99349.47;5056139;28;20474;-70
2022/01/15 05:19:03;;;;;;;22.87;15.53;;;;;;;-1.97;99.97;99350.31;5056308;28;20437;-70
2022/01/15 05:21:29;;;;;;;20.53;15.73;;;;;;;-1.96;99.97;99357.19;5056257;28;20430;-70
2022/01/15 05:23:55;;;;;;;22.60;15.57;;;;;;;-1.98;99.63;99354.66;5055959;28;20869;-69
2022/01/15 05:26:21;;;;;;;21.53;14.97;;;;;;;-2.02;100.00;99357.63;5055868;28;20880;-72
2022/01/15 05:28:48;;;;;;;21.27;16.10;;;;;;;-2.04;100.00;99362.09;5055974;28;20435;-72
2022/01/15 05:31:14;;;;;;;23.10;15.67;;;;;;;-2.04;100.00;99356.88;5056243;28;20434;-72
2022/01/15 05:33:40;;;;;;;24.40;16.97;;;;;;;-2.03;100.00;99362.00;5056217;28;20434;-72
2022/01/15 05:36:07;;;;;;;23.63;17.60;;;;;;;-2.01;100.00;99354.91;5056023;28;20461;-67
2022/01/15 05:38:33;;;;;;;21.83;15.93;;;;;;;-2.03;100.00;99356.78;5056104;28;20457;-67
2022/01/15 05:41:00;;;;;;;23.70;16.80;;;;;;;-2.05;100.00;99353.47;5055747;28;20892;-67
2022/01/15 05:43:26;;;;;;;25.50;16.90;;;;;;;-1.98;100.00;99354.66;5055691;28;20777;-67
2022/01/15 05:45:52;;;;;;;29.17;16.67;;;;;;;-1.99;99.56;99365.22;5056096;28;20469;-67
2022/01/15 05:48:19;;;;;;;20.97;15.90;;;;;;;-1.88;99.90;99363.53;5055997;28;20450;-67
2022/01/15 05:50:45;;;;;;;23.90;16.57;;;;;;;-1.87;99.37;99367.78;5055987;28;20426;-67
2022/01/15 05:53:11;;;;;;;21.97;15.40;;;;;;;-1.96;99.45;99360.63;5055983;28;20441;-68
2022/01/15 05:55:38;;;;;;;23.77;16.37;;;;;;;-1.97;99.29;99361.56;5055643;28;20478;-68
2022/01/15 05:58:06;;;;;;;21.90;16.93;;;;;;;-2.05;99.34;99370.84;5059743;28;20449;-68
2022/01/15 06:00:33;;;;;;;22.37;16.80;;;;;;;-2.12;99.50;99357.44;5059987;28;20648;-68
2022/01/15 06:02:59;;;;;;;22.50;16.93;;;;;;;-2.08;100.00;99356.28;5059537;28;20862;-66
2022/01/15 06:05:26;;;;;;;22.53;15.90;;;;;;;-2.02;99.68;99357.63;5059566;28;20418;-67
2022/01/15 06:07:52;;;;;;;23.93;16.07;;;;;;;-2.07;99.24;99360.53;5059584;28;20446;-67
2022/01/15 06:10:18;;;;;;;19.80;15.77;;;;;;;-2.15;99.92;99356.81;5059720;28;20434;-67
2022/01/15 06:12:45;;;;;;;22.53;16.47;;;;;;;-2.19;99.63;99364.03;5059348;28;20733;-72
2022/01/15 06:15:16;;;;;;;22.27;16.43;;;;;;;-2.24;99.70;99358.31;5059276;28;20873;-72
2022/01/15 06:17:44;;;;;;;25.30;16.77;;;;;;;-2.28;99.96;99351.66;5059630;28;20744;-68
2022/01/15 06:20:12;;;;;;;26.37;17.23;;;;;;;-2.25;99.51;99350.59;5059524;28;20437;-68
2022/01/15 06:22:38;;;;;;;25.17;17.20;;;;;;;-2.28;100.00;99359.47;5059527;28;20437;-68
2022/01/15 06:25:06;;;;;;;23.63;17.13;;;;;;;-2.32;99.84;99355.41;5059490;28;20520;-68
2022/01/15 06:27:33;;;;;;;24.27;16.80;;;;;;;-2.45;100.00;99352.00;5059037;28;20450;-68
2022/01/15 06:29:59;;;;;;;22.93;17.30;;;;;;;-2.39;100.00;99364.56;5059126;28;20838;-68
2022/01/15 06:32:27;;;;;;;21.83;15.60;;;;;;;-2.28;100.00;99356.88;5059256;28;20457;-68
2022/01/15 06:34:53;;;;;;;24.33;16.53;;;;;;;-2.24;99.97;99358.31;5059206;28;20536;-67
2022/01/15 06:37:20;;;;;;;25.37;17.17;;;;;;;-2.30;99.80;99356.13;5058695;28;20944;-67
2022/01/15 06:39:47;;;;;;;23.33;17.43;;;;;;;-2.34;100.00;99361.66;5059022;28;20733;-67
2022/01/15 06:42:14;;;;;;;25.63;17.50;;;;;;;-2.39;100.00;99359.38;5058877;28;20559;-67
2022/01/15 06:44:40;;;;;;;23.23;16.60;;;;;;;-2.32;99.42;99345.00;5058802;28;20437;-68
2022/01/15 06:47:07;;;;;;;24.00;16.63;;;;;;;-2.38;100.00;99345.44;5058900;28;20457;-68
2022/01/15 06:49:33;;;;;;;23.23;15.80;;;;;;;-2.38;100.00;99349.78;5059019;28;20426;-72
2022/01/15 06:52:00;;;;;;;26.90;16.77;;;;;;;-2.29;100.00;99349.16;5058650;28;20862;-72
2022/01/15 06:54:26;;;;;;;21.33;15.57;;;;;;;-2.27;99.68;99340.28;5058846;28;20422;-72
2022/01/15 06:56:53;;;;;;;22.77;15.43;;;;;;;-2.47;99.52;99337.41;5058357;28;20769;-68
2022/01/15 06:59:19;;;;;;;23.43;16.17;;;;;;;-2.43;100.00;99336.25;5058814;28;20458;-67
2022/01/15 07:01:45;;;;;;;20.03;14.70;;;;;;;-2.35;100.00;99341.78;5058765;28;20430;-68
2022/01/15 07:04:12;;;;;;;24.73;15.97;;;;;;;-2.36;100.00;99345.28;5058451;28;20430;-68
2022/01/15 07:06:38;;;;;;;22.67;15.90;;;;;;;-2.36;99.53;99338.31;5058453;28;20455;-68
2022/01/15 07:09:05;;;;;;;23.57;15.33;;;;;;;-2.35;100.00;99347.81;5058539;28;20426;-68
2022/01/15 07:11:31;;;;;;;21.20;15.80;;;;;;;-2.34;100.00;99344.25;5058515;28;20434;-67
2022/01/15 07:13:57;;;;;;;20.67;15.70;;;;;;;-2.31;100.00;99336.22;5058376;28;20434;-67
2022/01/15 07:16:24;;;;;;;21.00;14.37;;;;;;;-2.29;100.00;99338.72;5058121;28;20481;-68
2022/01/15 07:18:50;;;;;;;24.17;15.07;;;;;;;-2.32;99.61;99331.13;5057966;28;20861;-68
2022/01/15 07:21:16;;;;;;;18.77;14.83;;;;;;;-2.27;99.65;99337.69;5057799;28;20866;-68
2022/01/15 07:23:43;;;;;;;19.03;13.67;;;;;;;-2.29;100.00;99334.38;5057731;28;20423;-67
2022/01/15 07:26:10;;;;;;;18.33;13.70;;;;;;;-2.27;99.49;99323.81;5057659;28;20779;-67
2022/01/15 07:28:36;;;;;;;21.27;13.57;;;;;;;-2.23;99.79;99330.47;5057860;28;20833;-67
2022/01/15 07:31:03;;;;;;;21.93;14.33;;;;;;;-2.25;99.93;99327.16;5058080;28;20446;-67
2022/01/15 07:33:29;;;;;;;18.90;13.67;;;;;;;-2.20;100.00;99328.50;5057843;28;20522;-67
2022/01/15 07:35:56;;;;;;;21.20;14.30;;;;;;;-2.17;99.85;99327.47;5057608;28;20951;-67
2022/01/15 07:38:23;;;;;;;20.00;13.77;;;;;;;-2.18;99.56;99333.59;5057948;28;20457;-67
2022/01/15 07:40:53;;;;;;;17.10;12.47;;;;;;;-2.15;99.83;99323.81;5057859;28;20775;-67
2022/01/15 07:43:19;;;;;;;17.03;12.53;;;;;;;-2.14;99.24;99329.81;5057832;28;20746;-68
2022/01/15 07:45:46;;;;;;;16.87;12.53;;;;;;;-2.10;99.79;99334.72;5057835;28;20434;-67
2022/01/15 07:48:12;;;;;;;18.03;12.70;;;;;;;-2.04;99.19;99326.47;5057300;28;20917;-72
2022/01/15 07:50:38;;;;;;;15.63;12.57;;;;;;;-2.06;99.54;99320.53;5057402;28;20450;-72
2022/01/15 07:53:05;;;;;;;18.67;13.40;;;;;;;-2.03;99.16;99322.91;5057662;28;20734;-72
2022/01/15 07:55:31;;;;;;;17.20;12.87;;;;;;;-2.04;99.31;99321.25;5057687;28;20438;-72
2022/01/15 07:57:58;;;;;;;18.70;13.70;;;;;;;-2.05;99.80;99317.00;5057177;28;20936;-67
2022/01/15 08:00:24;;;;;;;18.47;14.17;;;;;;;-1.88;98.87;99307.94;5057153;28;20419;-72
2022/01/15 08:02:50;;;;;;;17.30;12.60;;;;;;;-1.85;98.78;99312.94;5057543;28;20426;-70
2022/01/15 08:05:17;;;;;;;17.47;13.30;;;;;;;-1.89;99.37;99307.09;5057637;28;20736;-70
2022/01/15 08:07:44;;;;;;;22.00;14.43;;;;;;;-1.79;99.03;99307.28;5057062;28;20453;-68
2022/01/15 08:10:11;;;;;;;18.30;14.23;;;;;;;-1.81;99.23;99315.22;5057125;28;20846;-68
2022/01/15 08:12:49;;;;;;;23.27;14.23;;;;;;;-1.80;99.50;99305.63;5057511;28;20434;-68
2022/01/15 08:15:17;;;;;;;20.10;13.47;;;;;;;-1.76;99.18;99301.84;5057342;28;20468;-72
2022/01/15 08:17:43;;;;;;;18.23;13.40;;;;;;;-1.72;99.77;99301.50;5056792;28;20477;-72
2022/01/15 08:20:10;;;;;;;19.90;14.73;;;;;;;-1.70;99.23;99310.06;5056326;28;20445;-73
2022/01/15 08:22:38;;;;;;;20.60;14.40;;;;;;;-1.65;98.96;99313.16;5057096;28;20438;-72
2022/01/15 08:25:05;;;;;;;20.23;14.67;;;;;;;-1.63;99.37;99303.44;5056781;28;20889;-72
2022/01/15 08:27:31;;;;;;;18.03;13.17;;;;;;;-1.56;98.85;99309.03;5056891;28;20457;-67
2022/01/15 08:29:58;;;;;;;19.30;14.27;;;;;;;-1.45;98.31;99311.66;5056979;28;20442;-67
2022/01/15 08:32:24;;;;;;;20.13;14.80;;;;;;;-1.40;98.56;99310.38;5056883;28;20434;-70
2022/01/15 08:34:51;;;;;;;17.23;14.27;;;;;;;-1.40;98.20;99307.78;5056893;28;20441;-69
2022/01/15 08:37:17;;;;;;;18.37;14.33;;;;;;;-1.41;98.43;99313.94;5056702;28;20481;-70
2022/01/15 08:39:43;;;;;;;18.03;14.30;;;;;;;-1.33;98.88;99306.38;5056664;28;20445;-70
2022/01/15 08:42:10;;;;;;;21.43;15.10;;;;;;;-1.36;98.58;99308.38;5056217;28;20442;-72
2022/01/15 08:44:41;;;;;;;20.77;15.33;;;;;;;-1.29;98.23;99307.84;5055985;28;20444;-72
2022/01/15 08:47:07;;;;;;;19.23;14.63;;;;;;;-1.22;97.66;99295.97;5055789;28;20485;-67
2022/01/15 08:49:34;;;;;;;18.40;14.43;;;;;;;-1.29;97.84;99292.19;5055906;28;20723;-67
2022/01/15 08:52:00;;;;;;;19.60;14.73;;;;;;;-1.14;96.72;99298.00;5055799;28;20418;-66
2022/01/15 08:54:27;;;;;;;22.60;15.80;;;;;;;-1.16;97.18;99292.91;5055569;28;20423;-67
2022/01/15 08:56:53;;;;;;;20.17;15.20;;;;;;;-1.15;96.89;99294.56;5055312;28;20492;-70
2022/01/15 08:59:20;;;;;;;18.40;14.67;;;;;;;-1.18;96.97;99292.19;5055371;28;20445;-70
2022/01/15 09:01:48;;;;;;;19.23;15.37;;;;;;;-1.07;97.33;99292.19;5055694;28;20438;-70
2022/01/15 09:04:15;;;;;;;22.10;14.77;;;;;;;-1.06;96.90;99288.66;5055621;28;20517;-70
2022/01/15 09:06:43;;;;;;;19.47;15.10;;;;;;;-1.08;96.80;99294.94;5055606;28;20744;-69
2022/01/15 09:09:09;;;;;;;20.73;16.17;;;;;;;-1.03;96.98;99288.41;5055219;28;20484;-68
2022/01/15 09:11:35;;;;;;;21.20;16.13;;;;;;;-0.94;97.19;99287.72;5055601;28;20434;-67
2022/01/15 09:14:02;;;;;;;19.87;15.40;;;;;;;-0.97;95.95;99290.56;5055599;28;20933;-67
2022/01/15 09:16:28;;;;;;;20.63;16.63;;;;;;;-0.89;96.08;99290.78;5055264;28;20458;-67
2022/01/15 09:18:56;;;;;;;23.90;16.00;;;;;;;-0.84;96.02;99293.91;5055139;28;20430;-67
2022/01/15 09:21:23;;;;;;;19.70;15.60;;;;;;;-0.69;95.07;99286.66;5055056;28;20522;-72
2022/01/15 09:23:50;;;;;;;21.67;15.30;;;;;;;-0.69;94.23;99287.50;5055224;28;20427;-68
2022/01/15 09:26:22;;;;;;;20.70;15.83;;;;;;;-0.22;93.07;99292.41;5055071;28;20430;-68
2022/01/15 09:31:35;;;;;;;18.27;15.17;;;;;;;-0.19;92.91;99276.50;5053858;28;20397;-67
2022/01/15 09:34:02;;;;;;;20.23;15.07;;;;;;;-0.15;93.09;99291.00;5055297;28;20426;-68
2022/01/15 09:36:28;;;;;;;18.80;15.03;;;;;;;-0.15;93.05;99287.53;5054890;28;20469;-70
2022/01/15 09:38:55;;;;;;;19.07;15.30;;;;;;;-0.04;93.14;99285.72;5055221;28;20505;-70
2022/01/15 09:41:22;;;;;;;19.33;15.07;;;;;;;-0.16;92.66;99291.97;5055096;28;20430;-70
2022/01/15 09:43:49;;;;;;;21.63;15.15;;;;;;;-0.12;92.78;99288.13;5018372;28;1073178;-70
2022/01/15 09:46:18;;;;;;;18.53;15.53;;;;;;;-0.10;93.69;99288.84;5055821;28;20506;-70
2022/01/15 09:48:48;;;;;;;20.80;15.77;;;;;;;-0.07;92.71;99293.84;5055918;28;20507;-68
2022/01/15 09:51:14;;;;;;;18.60;15.53;;;;;;;-0.05;92.29;99289.31;5055569;28;20611;-68
2022/01/15 09:53:42;;;;;;;21.53;15.40;;;;;;;0.21;91.27;99278.53;5055795;28;20189;-72
2022/01/15 09:56:09;;;;;;;19.17;14.93;;;;;;;0.11;93.01;99283.69;5055801;28;20426;-72
2022/01/15 09:58:36;;;;;;;20.97;15.93;;;;;;;0.15;92.57;99267.59;5055517;28;20858;-70
2022/01/15 10:01:02;;;;;;;18.63;15.83;;;;;;;0.21;92.39;99271.50;5055714;28;20425;-70
2022/01/15 10:03:29;;;;;;;20.37;16.00;;;;;;;0.28;92.00;99270.88;5055668;28;20225;-70
2022/01/15 10:05:55;;;;;;;20.37;16.47;;;;;;;0.49;90.99;99267.47;5055735;28;20193;-70
2022/01/15 10:08:22;;;;;;;19.53;16.30;;;;;;;0.46;90.83;99267.72;5055362;28;20220;-71
2022/01/15 10:10:51;;;;;;;21.87;16.27;;;;;;;0.41;91.11;99277.72;5055358;28;20651;-67
2022/01/15 10:13:21;;;;;;;22.80;16.83;;;;;;;0.43;90.58;99268.81;5055313;28;20991;-67
2022/01/15 10:16:09;;;;;;;20.43;16.37;;;;;;;0.45;91.21;99271.28;5055395;28;20197;-67
2022/01/15 10:18:42;;;;;;;22.43;16.63;;;;;;;0.53;90.85;99263.66;5055232;28;20481;-67
2022/01/15 10:21:15;;;;;;;20.23;16.27;;;;;;;0.53;90.66;99254.00;5055330;28;20189;-68
2022/01/15 10:23:47;;;;;;;21.53;15.20;;;;;;;0.55;89.25;99261.72;5055121;28;20197;-72
2022/01/15 10:26:28;;;;;;;22.10;15.47;;;;;;;0.60;89.92;99259.56;5054797;28;20585;-70
2022/01/15 10:29:04;;;;;;;18.87;16.00;;;;;;;0.63;88.42;99264.53;5054716;28;20604;-70
2022/01/15 10:31:48;;;;;;;20.43;14.93;;;;;;;0.67;89.35;99253.69;5055185;28;20205;-70
2022/01/15 10:34:28;;;;;;;18.30;15.63;;;;;;;0.62;88.72;99247.19;5055360;28;20280;-70
2022/01/15 10:37:07;;;;;;;19.17;15.20;;;;;;;0.60;87.90;99244.69;5054970;28;20221;-70
2022/01/15 10:39:33;;;;;;;22.00;16.93;;;;;;;0.67;88.81;99250.25;5055259;28;20198;-69
2022/01/15 10:42:00;;;;;;;20.47;15.97;;;;;;;0.63;88.84;99243.59;5055613;28;20213;-69
2022/01/15 10:44:34;;;;;;;20.53;15.73;;;;;;;0.66;89.33;99244.19;5058785;28;20210;-68
2022/01/15 10:47:03;;;;;;;22.63;16.30;;;;;;;0.80;88.21;99237.81;5058681;28;20220;-68
2022/01/15 10:49:30;;;;;;;21.17;16.07;;;;;;;1.11;86.83;99228.97;5058450;28;20604;-68
2022/01/15 10:52:17;;;;;;;19.73;15.57;;;;;;;0.90;87.94;99226.41;5058778;28;20200;-67
2022/01/15 10:55:08;;;;;;;20.93;16.40;;;;;;;0.98;88.22;99220.53;5059256;28;20284;-68
2022/01/15 10:57:44;;;;;;;18.43;15.23;;;;;;;1.02;87.27;99216.66;5058523;28;20236;-68
2022/01/15 11:00:18;;;;;;;19.40;15.40;;;;;;;1.02;87.38;99214.03;5058428;28;20193;-70
2022/01/15 11:02:48;;;;;;;17.23;15.27;;;;;;;1.10;87.99;99204.59;5058404;28;20193;-70
2022/01/15 11:05:34;;;;;;;18.40;15.23;;;;;;;1.14;88.01;99202.53;5058136;28;20193;-70
2022/01/15 11:08:17;;;;;;;20.30;15.33;;;;;;;1.20;87.60;99199.38;5058352;28;20311;-71
2022/01/15 11:10:50;;;;;;;17.63;15.57;;;;;;;1.18;88.28;99204.78;5058434;28;20190;-70
2022/01/15 11:13:28;;;;;;;17.97;15.83;;;;;;;1.30;87.46;99193.22;5058432;28;20204;-67
2022/01/15 11:15:59;;;;;;;19.83;15.37;;;;;;;1.44;86.62;99190.22;5058393;28;20281;-67
2022/01/15 11:18:30;;;;;;;16.77;14.00;;;;;;;1.46;86.03;99187.47;5057500;28;20265;-67
2022/01/15 11:20:59;;;;;;;17.60;14.30;;;;;;;1.53;86.48;99188.59;5057391;28;20212;-69
2022/01/15 11:23:29;;;;;;;19.57;14.63;;;;;;;1.59;86.19;99188.03;5058316;28;20208;-69
2022/01/15 11:25:58;;;;;;;21.60;15.40;;;;;;;1.79;84.16;99190.56;5058193;28;20194;-69
2022/01/15 11:28:28;;;;;;;17.67;15.50;;;;;;;1.72;85.50;99186.00;5057855;28;20223;-69
2022/01/15 11:31:01;;;;;;;16.90;14.97;;;;;;;1.84;85.84;99183.09;5058017;28;20189;-69
2022/01/15 11:33:42;;;;;;;17.80;15.47;;;;;;;1.81;86.43;99178.13;5058114;28;20189;-67